Time;durP1;ratioP1;P1;durP2;ratioP2;P2;SDS_P1;SDS_P2;PMS_P1;PMS_P2;Temp;Humidity;BMP_temperature;BMP_pressure;BME280_temperature;BME280_humidity;BME280_pressure;Samples;Min_cycle;Max_cycle;Signal;HPM_P1;HPM_P2
2022/06/17 00:00:18;;;;;;;4.15;3.70;;;21.10;99.90;;;;;;5087337;28;20032;-44
2022/06/17 00:02:44;;;;;;;6.30;4.20;;;21.00;99.90;;;;;;5054784;28;20036;-45
2022/06/17 00:05:09;;;;;;;5.68;3.58;;;21.00;99.90;;;;;;5088544;28;20122;-44
2022/06/17 00:07:36;;;;;;;6.07;4.07;;;20.90;99.90;;;;;;5090201;28;20034;-45
2022/06/17 00:10:03;;;;;;;11.02;4.75;;;20.90;99.90;;;;;;5082327;28;20033;-45
2022/06/17 00:12:29;;;;;;;5.13;3.50;;;21.00;99.90;;;;;;5086568;28;20426;-45
2022/06/17 00:15:13;;;;;;;6.88;3.72;;;21.00;99.90;;;;;;5090586;28;21098;-45
2022/06/17 00:17:55;;;;;;;5.40;3.42;;;21.10;99.90;;;;;;5050763;28;20064;-44
2022/06/17 00:20:24;;;;;;;4.93;3.10;;;21.10;99.90;;;;;;5052047;28;20037;-46
2022/06/17 00:22:50;;;;;;;4.65;3.00;;;21.10;99.90;;;;;;5064675;28;20053;-45
2022/06/17 00:25:24;;;;;;;6.25;3.50;;;21.20;99.90;;;;;;5068408;28;20476;-45
2022/06/17 00:27:50;;;;;;;6.20;3.55;;;21.20;99.90;;;;;;5067812;28;20029;-44
2022/06/17 00:30:19;;;;;;;5.15;4.22;;;21.20;99.90;;;;;;5034167;28;20504;-45
2022/06/17 00:32:45;;;;;;;4.60;3.67;;;21.00;99.90;;;;;;5034560;28;20056;-44
2022/06/17 00:35:12;;;;;;;14.18;4.22;;;20.80;99.90;;;;;;5069061;28;20127;-45
2022/06/17 00:37:40;;;;;;;5.55;3.75;;;20.70;99.90;;;;;;5071611;28;20079;-44
2022/06/17 00:40:22;;;;;;;6.85;4.15;;;20.70;99.90;;;;;;5071947;28;20025;-44
2022/06/17 00:42:48;;;;;;;7.65;3.80;;;20.70;99.90;;;;;;5072043;28;20476;-44
2022/06/17 00:45:20;;;;;;;8.50;4.07;;;20.70;99.90;;;;;;5073248;28;20554;-45
2022/06/17 00:48:15;;;;;;;6.38;3.75;;;20.70;99.90;;;;;;5072023;28;20148;-44
2022/06/17 00:50:49;;;;;;;10.75;3.65;;;;;;;;;;5068060;28;20033;-45
2022/06/17 00:53:29;;;;;;;6.65;3.78;;;20.50;99.90;;;;;;5077128;28;20135;-46
2022/06/17 00:56:19;;;;;;;5.97;4.45;;;20.50;99.90;;;;;;5077605;28;20051;-45
2022/06/17 00:59:00;;;;;;;5.13;3.63;;;20.50;99.90;;;;;;5073555;28;20044;-44
2022/06/17 01:01:28;;;;;;;4.70;3.90;;;20.50;99.90;;;;;;5089119;28;20027;-45
2022/06/17 01:03:59;;;;;;;7.55;3.72;;;20.60;99.90;;;;;;5091017;28;20028;-45
2022/06/17 01:06:30;;;;;;;5.35;3.75;;;20.60;99.90;;;;;;5070857;28;20039;-44
2022/06/17 01:12:15;;;;;;;6.07;3.83;;;20.60;99.90;;;;;;5025129;28;20107;-44
2022/06/17 01:14:43;;;;;;;6.00;3.92;;;20.60;99.90;;;;;;5024282;28;20038;-44
2022/06/17 01:17:12;;;;;;;8.50;4.00;;;20.50;99.90;;;;;;5025883;28;20647;-44
2022/06/17 01:19:44;;;;;;;6.53;3.88;;;20.40;99.90;;;;;;5026928;28;20069;-44
2022/06/17 01:22:15;;;;;;;;;;;20.20;99.90;;;;;;5037552;28;20045;-44
2022/06/17 01:24:42;;;;;;;7.85;4.72;;;20.20;99.90;;;;;;5047631;28;19915;-44
2022/06/17 01:27:08;;;;;;;10.05;4.20;;;20.20;99.90;;;;;;5037986;28;20060;-44
2022/06/17 01:29:34;;;;;;;7.78;3.97;;;20.10;99.90;;;;;;5046299;28;20057;-44
2022/06/17 01:32:01;;;;;;;6.57;4.10;;;20.20;99.90;;;;;;5043097;28;20033;-44
2022/06/17 01:34:27;;;;;;;7.50;4.38;;;20.20;99.90;;;;;;5029494;28;20127;-45
2022/06/17 01:36:53;;;;;;;7.00;3.80;;;20.30;99.90;;;;;;4997914;28;20127;-44
2022/06/17 01:39:20;;;;;;;5.68;4.18;;;20.10;99.90;;;;;;5041969;28;20457;-46
2022/06/17 01:41:47;;;;;;;6.13;4.40;;;20.00;99.90;;;;;;5044545;28;20492;-44
2022/06/17 01:44:23;;;;;;;8.88;4.07;;;19.90;99.90;;;;;;5045949;28;20021;-47
2022/06/17 01:46:53;;;;;;;5.57;4.40;;;20.00;99.90;;;;;;5041266;28;20041;-46
2022/06/17 01:49:27;;;;;;;7.18;4.50;;;20.00;99.90;;;;;;5085255;28;20111;-46
2022/06/17 01:52:02;;;;;;;5.75;3.95;;;20.10;99.90;;;;;;5083021;28;20047;-46
2022/06/17 01:54:54;;;;;;;7.05;4.25;;;20.20;99.90;;;;;;5034873;28;20396;-46
2022/06/17 01:57:26;;;;;;;8.45;3.97;;;20.10;99.90;;;;;;5053507;28;20056;-44
2022/06/17 01:59:57;;;;;;;7.45;4.47;;;20.00;99.90;;;;;;4999478;28;20569;-43
2022/06/17 02:02:23;;;;;;;10.88;4.28;;;20.00;99.90;;;;;;5046527;28;20116;-45
2022/06/17 02:04:57;;;;;;;10.00;4.50;;;20.00;99.90;;;;;;5036014;28;20040;-46
2022/06/17 02:07:33;;;;;;;7.72;4.53;;;19.90;99.90;;;;;;5041721;28;20039;-46
2022/06/17 02:09:59;;;;;;;8.18;4.38;;;19.90;99.90;;;;;;5050351;28;20551;-45
2022/06/17 02:12:27;;;;;;;6.78;4.22;;;19.90;99.90;;;;;;5049699;28;20547;-45
2022/06/17 02:14:54;;;;;;;7.57;3.97;;;20.00;99.90;;;;;;5047161;28;20079;-46
2022/06/17 02:17:25;;;;;;;8.10;4.72;;;20.00;99.90;;;;;;5041379;28;20469;-45
2022/06/17 02:19:51;;;;;;;9.00;4.22;;;20.20;99.90;;;;;;5053500;28;20032;-46
2022/06/17 02:22:24;;;;;;;6.50;4.53;;;20.20;99.90;;;;;;5058174;28;20099;-46
2022/06/17 02:24:58;;;;;;;8.80;4.53;;;20.20;99.90;;;;;;5075419;28;20047;-45
2022/06/17 02:27:26;;;;;;;7.85;4.68;;;20.30;99.90;;;;;;5089555;28;20432;-45
2022/06/17 02:29:52;;;;;;;5.82;4.35;;;20.30;99.90;;;;;;5106972;28;20080;-45
2022/06/17 02:32:19;;;;;;;10.52;4.68;;;20.30;99.90;;;;;;5109460;28;21063;-46
2022/06/17 02:34:56;;;;;;;10.85;5.20;;;20.30;99.90;;;;;;5104302;28;20059;-45
2022/06/17 02:37:23;;;;;;;6.18;4.22;;;20.30;99.90;;;;;;5087238;28;20040;-45
2022/06/17 02:39:51;;;;;;;7.47;4.85;;;20.30;99.90;;;;;;5103188;28;20103;-45
2022/06/17 02:42:25;;;;;;;9.05;4.53;;;20.40;99.90;;;;;;5077526;28;20043;-45
2022/06/17 02:45:00;;;;;;;6.50;4.47;;;20.40;99.90;;;;;;5077614;28;20035;-45
2022/06/17 02:47:26;;;;;;;6.63;4.90;;;20.50;99.90;;;;;;5103395;28;20023;-46
2022/06/17 02:49:52;;;;;;;5.95;4.53;;;20.50;99.90;;;;;;5102731;28;20031;-45
2022/06/17 02:52:26;;;;;;;7.88;4.60;;;20.50;99.90;;;;;;5099335;28;20148;-45
2022/06/17 02:54:59;;;;;;;6.25;4.40;;;20.50;99.90;;;;;;5108936;28;20107;-45
2022/06/17 02:57:28;;;;;;;7.13;4.60;;;20.60;99.90;;;;;;5105396;28;20083;-46
2022/06/17 03:00:16;;;;;;;9.07;4.78;;;20.60;99.90;;;;;;5077074;28;20539;-45
2022/06/17 03:02:49;;;;;;;9.18;5.35;;;20.70;99.90;;;;;;5071718;28;20040;-45
2022/06/17 03:05:28;;;;;;;6.53;5.00;;;20.70;99.90;;;;;;5097588;28;20110;-45
2022/06/17 03:07:56;;;;;;;6.60;5.05;;;20.80;99.90;;;;;;5076260;28;20201;-45
2022/06/17 03:10:34;;;;;;;8.88;4.50;;;20.80;99.90;;;;;;5111665;28;20030;-45
2022/06/17 03:13:12;;;;;;;6.30;4.80;;;20.80;99.90;;;;;;5103394;28;20040;-46
2022/06/17 03:15:42;;;;;;;5.97;4.82;;;20.80;99.90;;;;;;5102839;28;20032;-46
2022/06/17 03:18:10;;;;;;;6.10;4.93;;;20.90;99.90;;;;;;5098417;28;20062;-46
2022/06/17 03:20:37;;;;;;;7.95;5.20;;;20.90;99.90;;;;;;5102459;28;20153;-46
2022/06/17 03:23:26;;;;;;;10.70;5.22;;;20.80;99.90;;;;;;5073688;28;20511;-45
2022/06/17 03:26:06;;;;;;;7.25;5.32;;;20.90;99.90;;;;;;5092798;28;20363;-45
2022/06/17 03:28:45;;;;;;;8.48;5.03;;;20.90;99.90;;;;;;5092584;28;20024;-45
2022/06/17 03:31:27;;;;;;;6.18;4.95;;;21.00;99.90;;;;;;5092334;28;20081;-45
2022/06/17 03:34:15;;;;;;;10.45;4.78;;;21.00;99.90;;;;;;5050370;28;20057;-45
2022/06/17 03:36:59;;;;;;;7.43;5.13;;;21.00;99.90;;;;;;5042964;28;20052;-45
2022/06/17 03:39:35;;;;;;;7.00;5.32;;;21.00;99.90;;;;;;5043395;28;20033;-46
2022/06/17 03:42:17;;;;;;;7.32;4.75;;;21.10;99.90;;;;;;5050225;28;20409;-45
2022/06/17 03:44:55;;;;;;;6.82;4.53;;;21.10;99.90;;;;;;5043805;28;20393;-46
2022/06/17 03:47:31;;;;;;;7.68;4.85;;;21.10;99.90;;;;;;5050008;28;20091;-45
2022/06/17 03:50:05;;;;;;;6.28;4.90;;;21.20;99.90;;;;;;5045874;28;20041;-46
2022/06/17 03:52:56;;;;;;;6.30;5.18;;;21.20;99.90;;;;;;5049929;28;20040;-46
2022/06/17 03:55:23;;;;;;;12.05;6.20;;;21.20;99.90;;;;;;5045642;28;20508;-45
2022/06/17 03:57:52;;;;;;;6.53;5.60;;;21.30;99.90;;;;;;5049884;28;20064;-44
2022/06/17 04:00:37;;;;;;;8.27;5.25;;;21.30;99.90;;;;;;5050712;28;20584;-45
2022/06/17 04:03:08;;;;;;;7.00;5.40;;;21.30;99.90;;;;;;5050449;28;20469;-45
2022/06/17 04:05:34;;;;;;;7.82;5.63;;;21.40;99.90;;;;;;5083384;28;20044;-46
2022/06/17 04:08:00;;;;;;;7.93;5.45;;;21.40;99.90;;;;;;5092195;28;20071;-45
2022/06/17 04:10:30;;;;;;;6.45;5.30;;;21.40;99.90;;;;;;5075318;28;20083;-45
2022/06/17 04:12:56;;;;;;;8.25;5.15;;;21.40;99.90;;;;;;5096070;28;20402;-45
2022/06/17 04:15:30;;;;;;;8.57;5.78;;;21.40;99.90;;;;;;5096287;28;20032;-45
2022/06/17 04:17:56;;;;;;;6.57;5.30;;;21.30;99.90;;;;;;5060193;28;20502;-44
2022/06/17 04:20:44;;;;;;;9.68;5.40;;;21.30;99.90;;;;;;5094377;28;20118;-46
2022/06/17 04:23:17;;;;;;;7.75;5.78;;;21.30;99.90;;;;;;5104417;28;20521;-45
2022/06/17 04:25:59;;;;;;;8.98;5.78;;;21.30;99.90;;;;;;5106160;28;20024;-46
2022/06/17 04:28:33;;;;;;;9.60;5.55;;;21.30;99.90;;;;;;5113146;28;20027;-45
2022/06/17 04:31:06;;;;;;;6.95;5.50;;;21.20;99.90;;;;;;5110501;28;20031;-45
2022/06/17 04:33:43;;;;;;;8.27;5.80;;;21.20;99.90;;;;;;5102209;28;20456;-45
2022/06/17 04:36:24;;;;;;;10.80;6.20;;;21.20;99.90;;;;;;5102927;28;20036;-46
2022/06/17 04:38:56;;;;;;;7.47;5.45;;;21.20;99.90;;;;;;5113835;28;20420;-45
2022/06/17 04:41:37;;;;;;;8.90;6.13;;;21.30;99.90;;;;;;5110422;28;20111;-45
2022/06/17 04:44:05;;;;;;;11.60;5.87;;;21.20;99.90;;;;;;5101663;28;20043;-45
2022/06/17 04:46:37;;;;;;;9.55;6.82;;;21.30;99.90;;;;;;5103271;28;20115;-45
2022/06/17 04:49:04;;;;;;;7.65;5.93;;;21.30;99.90;;;;;;5113389;28;20032;-46
2022/06/17 04:51:34;;;;;;;12.77;7.40;;;21.40;99.90;;;;;;5058568;28;20044;-45
2022/06/17 04:54:02;;;;;;;9.23;6.40;;;21.50;99.90;;;;;;5102292;28;20038;-46
2022/06/17 04:56:37;;;;;;;11.35;6.22;;;21.50;99.90;;;;;;5108903;28;20035;-45
2022/06/17 04:59:22;;;;;;;10.15;5.82;;;21.60;99.90;;;;;;5105288;28;20506;-45
2022/06/17 05:01:49;;;;;;;9.30;6.68;;;21.70;99.90;;;;;;5105046;28;20074;-46
2022/06/17 05:04:15;;;;;;;11.35;6.60;;;21.70;99.90;;;;;;5099010;28;20028;-45
2022/06/17 05:06:41;;;;;;;9.52;6.00;;;21.80;99.90;;;;;;5106125;28;20036;-46
2022/06/17 05:09:30;;;;;;;8.77;5.65;;;21.80;99.90;;;;;;5096733;28;20100;-46
2022/06/17 05:12:07;;;;;;;11.98;6.15;;;21.90;99.90;;;;;;4996042;28;20445;-45
2022/06/17 05:14:50;;;;;;;9.63;6.65;;;22.00;99.90;;;;;;4980245;28;20041;-46
2022/06/17 05:17:16;;;;;;;7.47;6.35;;;22.00;99.90;;;;;;5012513;28;20045;-44
2022/06/17 05:19:41;;;;;;;7.80;5.78;;;22.00;99.90;;;;;;5012559;28;20425;-44
2022/06/17 05:22:20;;;;;;;8.48;6.07;;;22.00;99.90;;;;;;4973949;28;20038;-45
2022/06/17 05:24:47;;;;;;;10.38;5.72;;;22.10;99.90;;;;;;4989774;28;20030;-44
2022/06/17 05:27:13;;;;;;;9.45;6.28;;;22.20;99.90;;;;;;4996713;28;20026;-44
2022/06/17 05:29:38;;;;;;;11.15;6.47;;;22.30;99.90;;;;;;5005268;28;20085;-44
2022/06/17 05:32:05;;;;;;;7.75;5.68;;;22.50;99.90;;;;;;4992377;28;20089;-44
2022/06/17 05:34:30;;;;;;;7.15;5.18;;;22.60;99.90;;;;;;4992676;28;20080;-44
2022/06/17 05:36:57;;;;;;;10.02;5.47;;;22.70;99.90;;;;;;4991454;28;20069;-44
2022/06/17 05:39:23;;;;;;;11.05;7.10;;;22.60;99.90;;;;;;4992532;28;20474;-44
2022/06/17 05:41:49;;;;;;;6.97;5.65;;;22.80;99.90;;;;;;4991297;28;20035;-44
2022/06/17 05:44:15;;;;;;;9.23;5.60;;;22.80;99.90;;;;;;5009442;28;20104;-44
2022/06/17 05:46:43;;;;;;;13.85;6.00;;;23.10;99.90;;;;;;4991155;28;20112;-45
2022/06/17 05:49:09;;;;;;;8.43;5.88;;;23.30;99.90;;;;;;5048053;28;20096;-44
2022/06/17 05:51:34;;;;;;;9.57;5.00;;;23.30;99.90;;;;;;5094172;28;20107;-44
2022/06/17 05:54:01;;;;;;;9.77;5.90;;;23.30;99.90;;;;;;5093842;28;20114;-45
2022/06/17 05:56:27;;;;;;;6.28;4.78;;;23.40;99.90;;;;;;5094010;28;20036;-44
2022/06/17 05:58:53;;;;;;;7.35;5.15;;;23.30;99.90;;;;;;5094105;28;20032;-45
2022/06/17 06:01:19;;;;;;;8.60;5.38;;;23.40;99.90;;;;;;5078957;28;20028;-44
2022/06/17 06:03:45;;;;;;;7.82;5.15;;;23.30;99.90;;;;;;5058152;28;20075;-44
2022/06/17 06:06:11;;;;;;;5.97;4.63;;;23.40;99.90;;;;;;5092286;28;20476;-44
2022/06/17 06:08:37;;;;;;;9.82;5.65;;;23.40;99.90;;;;;;5091619;28;20090;-44
2022/06/17 06:11:05;;;;;;;15.35;5.43;;;23.60;99.90;;;;;;5086573;28;20032;-45
2022/06/17 06:13:31;;;;;;;9.80;5.50;;;23.70;99.90;;;;;;5029836;28;20049;-45
2022/06/17 06:15:59;;;;;;;8.95;5.15;;;23.70;99.90;;;;;;5003791;28;20524;-45
2022/06/17 06:18:29;;;;;;;10.18;4.57;;;23.80;99.90;;;;;;4981463;28;20033;-45
2022/06/17 06:20:55;;;;;;;12.50;5.18;;;23.70;99.90;;;;;;5030634;28;20030;-44
2022/06/17 06:23:21;;;;;;;8.40;4.80;;;23.70;99.90;;;;;;5028912;28;20037;-44
2022/06/17 06:25:47;;;;;;;11.38;5.30;;;23.70;99.90;;;;;;5016417;28;20109;-44
2022/06/17 06:28:19;;;;;;;7.07;5.30;;;23.80;99.90;;;;;;4969881;28;20087;-45
2022/06/17 06:31:16;;;;;;;10.45;5.15;;;23.90;99.90;;;;;;5034203;28;20039;-44
2022/06/17 06:33:41;;;;;;;9.05;5.05;;;24.00;99.90;;;;;;4973004;28;20082;-44
2022/06/17 06:36:07;;;;;;;7.70;4.70;;;24.30;99.90;;;;;;4987861;28;20027;-44
2022/06/17 06:38:33;;;;;;;8.05;5.60;;;24.20;99.90;;;;;;4989287;28;20046;-44
2022/06/17 06:41:01;;;;;;;7.60;4.93;;;24.30;99.90;;;;;;4990404;28;20616;-45
2022/06/17 06:43:26;;;;;;;7.20;4.60;;;24.50;99.90;;;;;;4992526;28;20579;-47
2022/06/17 06:45:52;;;;;;;9.57;4.95;;;24.50;99.90;;;;;;5031162;28;20045;-46
2022/06/17 06:48:21;;;;;;;6.82;4.50;;;24.50;99.90;;;;;;5027899;28;20026;-47
2022/06/17 06:50:48;;;;;;;11.18;4.07;;;24.50;99.90;;;;;;4983689;28;20530;-46
2022/06/17 06:53:13;;;;;;;8.18;3.80;;;24.40;99.90;;;;;;5024445;28;20053;-46
2022/06/17 06:55:39;;;;;;;8.02;4.50;;;24.40;99.90;;;;;;4994858;28;20037;-46
2022/06/17 06:58:17;;;;;;;5.57;4.00;;;24.60;99.90;;;;;;4989356;28;20033;-46
2022/06/17 07:00:46;;;;;;;6.70;3.88;;;24.70;99.90;;;;;;5028772;28;20090;-47
2022/06/17 07:03:12;;;;;;;8.30;4.32;;;24.70;99.90;;;;;;5024828;28;20025;-46
2022/06/17 07:05:41;;;;;;;8.73;4.63;;;24.70;99.90;;;;;;5021010;28;20033;-46
2022/06/17 07:08:08;;;;;;;7.53;4.13;;;;;;;;;;5017618;28;20057;-46
2022/06/17 07:10:35;;;;;;;7.35;4.03;;;;;;;;;;5054869;28;20104;-46
2022/06/17 07:13:02;;;;;;;8.70;4.38;;;;;;;;;;5078337;28;20041;-46
2022/06/17 07:15:28;;;;;;;8.10;4.68;;;25.40;99.90;;;;;;5085867;28;20384;-45
2022/06/17 07:18:04;;;;;;;10.07;4.70;;;25.40;99.90;;;;;;5089090;28;20032;-44
2022/06/17 07:20:42;;;;;;;6.97;4.65;;;25.70;99.90;;;;;;5065620;28;20108;-45
2022/06/17 07:23:14;;;;;;;9.57;4.28;;;25.30;99.90;;;;;;5070403;28;20044;-46
2022/06/17 07:25:41;;;;;;;7.63;4.18;;;25.30;99.90;;;;;;5089931;28;20114;-47
2022/06/17 07:28:07;;;;;;;10.20;4.10;;;;;;;;;;5089494;28;20107;-46
2022/06/17 07:30:34;;;;;;;7.80;3.90;;;;;;;;;;5070971;28;20032;-46
2022/06/17 07:33:00;;;;;;;16.85;4.30;;;25.70;99.90;;;;;;5069044;28;20175;-46
2022/06/17 07:35:27;;;;;;;5.65;3.33;;;;;;;;;;5069979;28;20049;-47
2022/06/17 07:40:37;;;;;;;7.97;4.28;;;;;;;;;;5062419;28;20082;-47
2022/06/17 07:43:03;;;;;;;6.15;3.80;;;26.00;99.90;;;;;;5070644;28;20060;-46
2022/06/17 07:45:31;;;;;;;7.72;3.45;;;26.00;99.90;;;;;;5072444;28;20040;-46
2022/06/17 07:47:58;;;;;;;11.60;4.30;;;26.00;99.90;;;;;;5037011;28;20037;-46
2022/06/17 07:50:29;;;;;;;5.40;3.65;;;25.90;99.90;;;;;;5054095;28;20094;-46
2022/06/17 07:52:56;;;;;;;6.32;3.42;;;26.10;99.90;;;;;;5054694;28;20055;-46
2022/06/17 07:55:22;;;;;;;6.32;3.97;;;26.00;99.90;;;;;;5053512;28;20041;-47
2022/06/17 07:57:49;;;;;;;8.25;3.92;;;26.10;99.90;;;;;;5049371;28;20037;-46
2022/06/17 08:00:24;;;;;;;6.80;3.80;;;;;;;;;;5052057;28;20082;-46
2022/06/17 08:02:50;;;;;;;6.07;3.78;;;26.80;99.90;;;;;;5072534;28;20091;-46
2022/06/17 08:05:17;;;;;;;11.40;3.88;;;26.50;99.90;;;;;;5074347;28;20432;-46
2022/06/17 08:07:42;;;;;;;6.25;3.80;;;27.20;99.90;;;;;;5056376;28;20051;-47
2022/06/17 08:10:09;;;;;;;9.18;3.85;;;27.10;99.90;;;;;;5074927;28;20023;-46
2022/06/17 08:12:35;;;;;;;4.78;3.50;;;27.20;99.90;;;;;;5028239;28;20538;-46
2022/06/17 08:15:00;;;;;;;6.15;3.47;;;27.10;99.90;;;;;;5046411;28;20064;-47
2022/06/17 08:17:26;;;;;;;7.70;4.30;;;27.10;99.90;;;;;;5069527;28;20099;-46
2022/06/17 08:19:56;;;;;;;6.53;3.45;;;27.00;99.90;;;;;;5021819;28;20032;-47
2022/06/17 08:22:24;;;;;;;8.40;3.72;;;27.10;99.90;;;;;;5089587;28;20104;-46
2022/06/17 08:24:55;;;;;;;12.07;4.00;;;27.40;99.90;;;;;;5089520;28;20123;-46
2022/06/17 08:27:21;;;;;;;11.23;3.78;;;27.70;99.90;;;;;;5082452;28;20040;-46
2022/06/17 08:29:47;;;;;;;5.75;3.10;;;27.60;99.90;;;;;;5085200;28;20032;-44
2022/06/17 08:34:59;;;;;;;6.57;3.53;;;;;;;;;;5086262;28;20036;-44
2022/06/17 08:37:25;;;;;;;6.30;3.13;;;;;;;;;;5082630;28;20031;-44
2022/06/17 08:39:52;;;;;;;10.15;3.47;;;;;;;;;;5082577;28;20113;-44
2022/06/17 08:42:20;;;;;;;7.00;2.90;;;;;;;;;;5074534;28;20048;-44
2022/06/17 08:44:56;;;;;;;7.72;3.63;;;;;;;;;;5085386;28;20043;-44
2022/06/17 08:47:22;;;;;;;6.00;3.88;;;;;;;;;;5080101;28;20073;-44
2022/06/17 08:49:48;;;;;;;9.23;3.97;;;;;;;;;;5080873;28;20056;-45
2022/06/17 08:52:34;;;;;;;8.63;3.50;;;;;;;;;;5086047;28;20044;-43
2022/06/17 08:55:18;;;;;;;7.40;2.80;;;;;;;;;;5084665;28;20122;-44
2022/06/17 08:57:51;;;;;;;9.02;3.90;;;;;;;;;;5066642;28;20062;-45
2022/06/17 09:00:22;;;;;;;7.40;3.65;;;;;;;;;;5056337;28;20570;-45
2022/06/17 09:03:06;;;;;;;6.35;3.00;;;;;;;;;;5089325;28;20051;-44
2022/06/17 09:05:39;;;;;;;8.07;4.70;;;;;;;;;;5076380;28;20039;-44
2022/06/17 09:08:26;;;;;;;8.07;3.60;;;27.80;99.90;;;;;;5096133;28;20066;-44
2022/06/17 09:11:28;;;;;;;9.43;3.65;;;27.90;99.90;;;;;;5084324;28;20051;-44
2022/06/17 09:14:32;;;;;;;4.63;3.20;;;28.20;99.90;;;;;;5091639;28;20496;-44
2022/06/17 09:17:44;;;;;;;6.00;3.25;;;28.40;99.90;;;;;;5038240;28;20063;-45
2022/06/17 09:20:13;;;;;;;4.85;2.95;;;;;;;;;;5018491;28;20050;-44
2022/06/17 09:22:41;;;;;;;5.75;3.15;;;;;;;;;;4979633;28;20398;-46
2022/06/17 09:25:14;;;;;;;5.50;2.80;;;29.30;99.90;;;;;;5012583;28;20044;-47
2022/06/17 09:27:44;;;;;;;7.03;3.30;;;29.50;99.90;;;;;;5012328;28;20046;-46
2022/06/17 09:30:15;;;;;;;5.28;3.13;;;;;;;;;;5013436;28;20034;-46
2022/06/17 09:32:47;;;;;;;4.03;2.13;;;;;;;;;;5012243;28;20042;-46
2022/06/17 09:35:27;;;;;;;6.93;3.17;;;;;;;;;;5012331;28;20038;-46
2022/06/17 09:38:05;;;;;;;7.05;2.70;;;;;;;;;;5012624;28;20041;-45
2022/06/17 09:40:35;;;;;;;4.50;2.50;;;;;;;;;;4996276;28;20486;-44
2022/06/17 09:43:15;;;;;;;5.65;2.72;;;30.00;99.90;;;;;;5013017;28;20038;-45
2022/06/17 09:46:00;;;;;;;9.80;2.88;;;30.10;99.90;;;;;;5012397;28;20034;-45
2022/06/17 09:48:42;;;;;;;5.75;2.78;;;29.90;99.90;;;;;;5012783;28;20084;-45
2022/06/17 09:51:15;;;;;;;4.63;2.75;;;30.20;99.90;;;;;;5012306;28;20038;-45
2022/06/17 09:54:12;;;;;;;5.95;2.95;;;30.30;99.90;;;;;;5003264;28;20541;-45
2022/06/17 09:56:51;;;;;;;5.70;3.28;;;29.90;99.90;;;;;;5043841;28;20428;-44
2022/06/17 09:59:20;;;;;;;4.93;3.03;;;;;;;;;;5040950;28;20034;-44
2022/06/17 10:01:47;;;;;;;10.85;4.82;;;30.70;99.90;;;;;;5042375;28;20048;-45
2022/06/17 10:04:15;;;;;;;3.40;2.63;;;30.20;99.90;;;;;;4992501;28;20037;-44
2022/06/17 10:06:59;;;;;;;8.27;3.08;;;30.00;99.90;;;;;;5035692;28;20043;-45
2022/06/17 10:09:51;;;;;;;16.10;3.33;;;30.30;99.90;;;;;;5041230;28;20029;-44
2022/06/17 10:12:38;;;;;;;10.32;2.90;;;29.80;99.90;;;;;;5041018;28;20045;-45
2022/06/17 10:15:18;;;;;;;5.82;2.60;;;29.50;99.90;;;;;;5041307;28;20079;-44
2022/06/17 10:18:31;;;;;;;5.78;2.50;;;29.50;99.90;;;;;;5040914;28;20071;-44
2022/06/17 10:20:57;;;;;;;6.50;2.40;;;29.20;99.90;;;;;;5032234;28;20205;-44
2022/06/17 10:23:37;;;;;;;4.78;2.75;;;29.40;99.90;;;;;;5042569;28;20124;-45
2022/06/17 10:26:47;;;;;;;4.05;2.67;;;29.60;99.90;;;;;;5042634;28;20037;-43
2022/06/17 10:29:39;;;;;;;6.60;2.58;;;30.00;99.90;;;;;;5018420;28;20045;-45
2022/06/17 10:32:05;;;;;;;;;;;29.70;99.90;;;;;;5038208;28;20045;-44
2022/06/17 10:34:47;;;;;;;11.00;6.25;;;30.20;99.90;;;;;;5082561;28;19923;-45
2022/06/17 10:37:13;;;;;;;;;;;29.80;99.90;;;;;;5059189;28;20039;-45
2022/06/17 10:39:40;;;;;;;4.60;1.85;;;30.90;99.90;;;;;;5090590;28;19908;-44
2022/06/17 10:42:07;;;;;;;4.88;2.38;;;;;;;;;;5052031;28;20032;-44
2022/06/17 10:44:34;;;;;;;8.20;2.28;;;;;;;;;;5082029;28;20032;-44
2022/06/17 10:47:05;;;;;;;4.65;2.00;;;;;;;;;;5035574;28;20039;-45
2022/06/17 10:49:38;;;;;;;3.50;1.80;;;;;;;;;;5075965;28;20506;-44
2022/06/17 10:52:09;;;;;;;4.05;1.92;;;;;;;;;;5091371;28;20127;-44
2022/06/17 10:54:38;;;;;;;7.80;2.60;;;;;;;;;;5085075;28;20491;-45
2022/06/17 10:57:09;;;;;;;37.17;11.65;;;;;;;;;;5082449;28;20454;-45
2022/06/17 10:59:38;;;;;;;6.90;2.83;;;;;;;;;;5074525;28;20040;-43
2022/06/17 11:02:25;;;;;;;4.35;1.92;;;33.20;98.30;;;;;;5086330;28;20415;-45
2022/06/17 11:04:52;;;;;;;5.70;2.15;;;32.90;98.40;;;;;;5079016;28;20038;-46
2022/06/17 11:07:21;;;;;;;3.65;1.80;;;;;;;;;;5014055;28;20041;-44
2022/06/17 11:09:52;;;;;;;6.05;2.00;;;32.80;99.90;;;;;;5031291;28;20034;-45
2022/06/17 11:12:19;;;;;;;;;;;;;;;;;;5030741;28;20045;-45
2022/06/17 11:14:46;;;;;;;3.83;1.88;;;;;;;;;;5030465;28;20270;-44
2022/06/17 11:17:12;;;;;;;3.92;1.90;;;;;;;;;;5030279;28;20030;-45
2022/06/17 11:19:39;;;;;;;4.00;2.03;;;;;;;;;;5030405;28;20029;-45
2022/06/17 11:22:08;;;;;;;5.78;1.88;;;33.10;99.90;;;;;;5036106;28;20087;-45
2022/06/17 11:24:38;;;;;;;5.20;1.92;;;33.10;99.90;;;;;;5040852;28;20036;-45
2022/06/17 11:27:31;;;;;;;3.75;2.13;;;32.30;95.30;;;;;;5040045;28;20080;-45
2022/06/17 11:30:18;;;;;;;6.32;2.42;;;32.50;94.80;;;;;;5037734;28;21238;-45
2022/06/17 11:32:45;;;;;;;6.85;2.28;;;;;;;;;;5018471;28;20046;-45
2022/06/17 11:35:26;;;;;;;5.97;1.92;;;33.60;99.90;;;;;;5020306;28;20033;-44
2022/06/17 11:37:53;;;;;;;3.97;1.90;;;33.60;94.30;;;;;;5031498;28;20516;-45
2022/06/17 11:40:25;;;;;;;4.38;1.63;;;33.50;94.30;;;;;;5089836;28;20055;-45
2022/06/17 11:42:55;;;;;;;5.30;1.92;;;33.50;94.60;;;;;;5078251;28;20029;-45
2022/06/17 11:45:42;;;;;;;3.10;1.52;;;33.60;94.00;;;;;;5078365;28;20037;-45
2022/06/17 11:48:13;;;;;;;5.97;1.95;;;33.60;93.50;;;;;;5078380;28;20041;-44
2022/06/17 11:50:58;;;;;;;4.40;1.60;;;33.50;93.00;;;;;;5078583;28;20027;-44
2022/06/17 11:53:24;;;;;;;3.10;1.70;;;33.30;92.90;;;;;;5073924;28;20044;-44
2022/06/17 11:55:50;;;;;;;7.18;1.63;;;33.10;92.50;;;;;;5079813;28;20028;-45
2022/06/17 11:58:19;;;;;;;7.88;1.90;;;33.10;92.80;;;;;;5080316;28;20060;-45
2022/06/17 12:00:58;;;;;;;3.67;1.70;;;33.20;93.40;;;;;;5087842;28;20024;-45
2022/06/17 12:03:32;;;;;;;4.05;1.92;;;33.10;92.60;;;;;;5085636;28;20054;-45
2022/06/17 12:06:03;;;;;;;2.40;1.65;;;;;;;;;;5092364;28;20032;-45
2022/06/17 12:08:36;;;;;;;1.40;1.30;;;;;;;;;;5088295;28;20039;-44
2022/06/17 12:11:05;;;;;;;3.47;1.52;;;;;;;;;;5040181;28;20032;-47
2022/06/17 12:13:41;;;;;;;2.08;1.38;;;34.20;95.30;;;;;;5092902;28;20047;-45
2022/06/17 12:16:19;;;;;;;4.50;1.33;;;34.60;90.80;;;;;;5092052;28;20102;-44
2022/06/17 12:18:48;;;;;;;4.22;1.50;;;35.00;90.60;;;;;;5092389;28;20482;-45
2022/06/17 12:21:19;;;;;;;7.75;1.77;;;35.00;90.10;;;;;;5045199;28;20047;-44
2022/06/17 12:23:47;;;;;;;;;;;34.80;90.60;;;;;;5106537;28;20119;-45
2022/06/17 12:26:29;;;;;;;3.00;1.60;;;35.00;90.50;;;;;;5079349;28;19966;-45
2022/06/17 12:29:17;;;;;;;2.83;1.90;;;35.00;90.60;;;;;;5106722;28;20447;-46
2022/06/17 12:31:50;;;;;;;3.67;1.58;;;34.80;90.60;;;;;;5099531;28;20032;-45
2022/06/17 12:34:22;;;;;;;3.33;1.58;;;34.80;90.20;;;;;;5110088;28;20058;-45
2022/06/17 12:36:55;;;;;;;3.13;1.65;;;34.80;90.40;;;;;;5103881;28;20379;-44
2022/06/17 12:39:59;;;;;;;4.78;1.38;;;35.00;90.30;;;;;;5106271;28;20092;-45
2022/06/17 12:42:41;;;;;;;3.47;1.65;;;34.40;89.10;;;;;;5033205;28;20048;-45
2022/06/17 12:45:15;;;;;;;2.13;1.52;;;33.90;90.20;;;;;;5014170;28;20026;-45
2022/06/17 12:48:00;;;;;;;2.20;1.50;;;33.90;90.10;;;;;;5033855;28;20120;-45
2022/06/17 12:54:03;;;;;;;3.13;1.60;;;34.60;89.20;;;;;;5033106;28;20088;-46
2022/06/17 12:56:58;;;;;;;2.53;1.60;;;35.30;90.20;;;;;;5023920;28;20132;-44
2022/06/17 12:59:50;;;;;;;3.22;1.35;;;34.90;87.00;;;;;;5032850;28;20445;-45
2022/06/17 13:02:21;;;;;;;3.83;1.45;;;34.80;87.70;;;;;;4999984;28;20037;-44
2022/06/17 13:05:13;;;;;;;3.33;1.43;;;34.20;87.70;;;;;;5033552;28;20025;-45
2022/06/17 13:07:41;;;;;;;3.70;1.73;;;33.80;88.00;;;;;;5033211;28;20034;-45
2022/06/17 13:13:09;;;;;;;3.25;1.75;;;34.00;87.50;;;;;;5032340;28;20060;-45
2022/06/17 13:15:59;;;;;;;3.92;1.50;;;34.30;88.30;;;;;;5032672;28;20068;-44
2022/06/17 13:18:39;;;;;;;6.10;2.67;;;34.50;88.80;;;;;;5026485;28;20376;-44
2022/06/17 13:21:46;;;;;;;4.00;1.50;;;34.50;88.60;;;;;;5105932;28;20040;-44
2022/06/17 13:24:40;;;;;;;4.53;1.85;;;34.80;88.10;;;;;;5003809;28;20046;-44
2022/06/17 13:27:19;;;;;;;1.70;1.40;;;34.10;87.10;;;;;;5012491;28;20032;-45
2022/06/17 13:30:03;;;;;;;5.20;2.30;;;33.20;87.70;;;;;;5010146;28;20092;-45
2022/06/17 13:32:37;;;;;;;4.93;1.98;;;32.60;88.40;;;;;;5011115;28;20033;-45
2022/06/17 13:35:24;;;;;;;4.13;1.90;;;32.50;89.60;;;;;;5011870;28;20045;-45
2022/06/17 13:38:14;;;;;;;6.72;2.55;;;32.30;90.00;;;;;;5008869;28;20065;-46
2022/06/17 13:40:45;;;;;;;2.65;1.83;;;31.80;90.20;;;;;;4991329;28;20046;-45
2022/06/17 13:43:17;;;;;;;3.75;1.63;;;32.20;90.40;;;;;;4959255;28;20458;-46
2022/06/17 13:45:58;;;;;;;4.68;1.70;;;32.30;89.90;;;;;;4965648;28;20039;-46
2022/06/17 13:49:04;;;;;;;3.03;1.38;;;32.80;89.90;;;;;;4991368;28;20046;-46